createdAt,value
2019-02-06T00:01:14.822Z,8.78
2019-02-06T00:04:30.245Z,11.50
2019-02-06T00:06:59.607Z,12.85
2019-02-06T00:09:29.694Z,10.00
2019-02-06T00:11:57.821Z,9.70
2019-02-06T00:28:43.915Z,9.10
2019-02-06T00:31:14.904Z,9.15
2019-02-06T00:34:12.785Z,12.30
2019-02-06T00:36:42.842Z,12.70
2019-02-06T00:42:08.369Z,10.75
2019-02-06T00:47:07.730Z,9.75
2019-02-06T00:49:36.962Z,9.70
2019-02-06T00:52:07.296Z,9.80
2019-02-06T00:54:37.303Z,8.60
2019-02-06T00:59:35.651Z,8.90
2019-02-06T01:02:06.458Z,12.60
2019-02-06T01:04:35.710Z,12.15
2019-02-06T01:07:05.124Z,11.95
2019-02-06T01:09:36.110Z,14.90
2019-02-06T01:12:05.911Z,12.80
2019-02-06T01:14:35.695Z,13.40
2019-02-06T01:19:36.557Z,10.45
2019-02-06T01:22:08.773Z,10.30
2019-02-06T01:24:38.837Z,9.50
2019-02-06T01:27:09.839Z,10.00
2019-02-06T01:34:37.383Z,10.00
2019-02-06T01:37:06.696Z,12.13
2019-02-06T01:39:36.046Z,12.60
2019-02-06T01:44:34.532Z,12.50
2019-02-06T01:47:07.017Z,12.75
2019-02-06T01:49:36.815Z,12.40
2019-02-06T01:52:05.961Z,11.30
2019-02-06T01:54:35.787Z,9.80
2019-02-06T01:57:07.404Z,8.70
2019-02-06T01:59:36.838Z,9.50
2019-02-06T02:02:05.677Z,9.70
2019-02-06T02:04:36.373Z,10.10
2019-02-06T02:07:07.738Z,10.05
2019-02-06T02:09:38.368Z,10.10
2019-02-06T02:12:29.871Z,15.95
2019-02-06T02:14:59.723Z,12.65
2019-02-06T02:17:32.431Z,12.93
2019-02-06T02:20:03.723Z,11.80
2019-02-06T02:22:35.752Z,10.90
2019-02-06T02:25:06.821Z,9.90
2019-02-06T02:27:36.911Z,9.90
2019-02-06T02:32:37.729Z,9.40
2019-02-06T02:35:08.743Z,9.60
2019-02-06T02:37:38.384Z,9.10
2019-02-06T02:40:09.290Z,10.93
2019-02-06T02:42:39.164Z,12.60
2019-02-06T02:45:11.753Z,13.97
2019-02-06T02:47:40.821Z,11.90
2019-02-06T02:50:11.075Z,12.77
2019-02-06T02:52:41.700Z,11.65
2019-02-06T02:55:10.836Z,12.10
2019-02-06T02:57:40.648Z,10.60
2019-02-06T03:00:14.979Z,10.20
2019-02-06T03:03:13.399Z,11.10
2019-02-06T03:10:41.715Z,12.85
2019-02-06T03:13:12.272Z,13.30
2019-02-06T03:18:10.721Z,11.30
2019-02-06T03:20:39.683Z,12.37
2019-02-06T03:23:09.594Z,11.25
2019-02-06T03:25:38.963Z,9.00
2019-02-06T03:29:41.653Z,11.90
2019-02-06T03:32:11.699Z,14.30
2019-02-06T03:34:42.169Z,12.50
2019-02-06T03:39:11.768Z,12.00
2019-02-06T03:46:39.877Z,9.70
2019-02-06T03:49:09.826Z,9.40
2019-02-06T03:54:10.896Z,10.00
2019-02-06T03:56:39.343Z,9.70
2019-02-06T03:59:10.263Z,9.80
2019-02-06T04:01:39.888Z,9.10
2019-02-06T04:04:10.663Z,12.43
2019-02-06T04:06:38.964Z,12.85
2019-02-06T04:11:36.822Z,12.07
2019-02-06T04:14:07.788Z,12.70
2019-02-06T04:16:36.931Z,11.50
2019-02-06T04:19:06.269Z,10.65
2019-02-06T04:21:36.813Z,10.10
2019-02-06T04:24:08.065Z,9.05
2019-02-06T04:26:38.750Z,9.40
2019-02-06T04:29:09.884Z,9.60
2019-02-06T04:31:40.718Z,9.60
2019-02-06T04:34:10.706Z,9.65
2019-02-06T04:39:10.842Z,12.07
2019-02-06T04:41:40.095Z,11.90
2019-02-06T04:44:09.807Z,11.85
2019-02-06T04:46:41.728Z,12.90
2019-02-06T04:49:11.818Z,12.55
2019-02-06T04:51:41.961Z,10.60
2019-02-06T04:54:13.071Z,9.90
2019-02-06T04:56:44.882Z,9.90
2019-02-06T04:59:16.023Z,9.00
2019-02-06T05:01:48.853Z,8.95
2019-02-06T05:05:22.966Z,10.80
2019-02-06T05:10:22.859Z,10.90
2019-02-06T05:12:52.261Z,8.60
2019-02-06T05:15:22.072Z,10.15
2019-02-06T05:17:50.955Z,8.40
2019-02-06T05:20:25.804Z,7.90
2019-02-06T05:22:54.126Z,8.40
2019-02-06T05:25:24.470Z,8.90
2019-02-06T05:27:53.278Z,9.50
2019-02-06T05:30:23.267Z,8.40
2019-02-06T05:32:52.670Z,10.50
2019-02-06T05:35:21.661Z,11.65
2019-02-06T05:37:51.682Z,10.63
2019-02-06T05:40:20.958Z,11.80
2019-02-06T05:44:05.651Z,9.25
2019-02-06T06:00:51.776Z,11.55
2019-02-06T06:03:20.970Z,11.77
2019-02-06T06:05:49.451Z,11.27
2019-02-06T06:08:19.698Z,10.70
2019-02-06T06:10:49.895Z,11.40
2019-02-06T06:13:20.894Z,10.70
2019-02-06T06:15:50.658Z,10.20
2019-02-06T06:18:21.987Z,8.30
2019-02-06T06:20:54.185Z,9.30
2019-02-06T06:23:24.583Z,8.70
2019-02-06T06:28:26.054Z,9.43
2019-02-06T06:30:56.059Z,8.15
2019-02-06T06:33:25.745Z,9.70
2019-02-06T06:35:56.705Z,11.45
2019-02-06T06:40:54.900Z,11.00
2019-02-06T06:43:24.990Z,11.00
2019-02-06T06:45:54.788Z,11.30
2019-02-06T06:48:25.751Z,10.30
2019-02-06T06:50:54.853Z,10.10
2019-02-06T06:53:25.728Z,10.60
2019-02-06T06:58:01.705Z,9.30
2019-02-06T07:00:31.740Z,8.95
2019-02-06T07:03:01.918Z,8.40
2019-02-06T07:07:19.860Z,9.70
2019-02-06T07:09:51.169Z,9.10
2019-02-06T07:14:49.832Z,9.20
2019-02-06T07:17:20.093Z,9.90
2019-02-06T07:19:51.154Z,8.30
2019-02-06T07:22:23.273Z,9.15
2019-02-06T07:24:54.938Z,10.40
2019-02-06T07:29:56.019Z,11.15
2019-02-06T07:32:26.764Z,10.85
2019-02-06T07:34:58.662Z,13.70
2019-02-06T07:37:29.329Z,19.10
2019-02-06T07:42:28.199Z,15.40
2019-02-06T07:44:59.047Z,14.40
2019-02-06T07:47:28.938Z,15.55
2019-02-06T07:52:27.796Z,13.50
2019-02-06T07:54:57.377Z,12.00
2019-02-06T07:57:27.660Z,14.60
2019-02-06T08:02:25.725Z,19.40
2019-02-06T08:04:54.809Z,20.40
2019-02-06T08:07:23.554Z,21.45
2019-02-06T08:09:54.174Z,16.70
2019-02-06T08:14:54.682Z,14.40
2019-02-06T08:17:23.726Z,21.95
2019-02-06T08:19:54.618Z,21.40
2019-02-06T08:22:23.390Z,18.77
2019-02-06T08:27:26.291Z,16.50
2019-02-06T08:29:55.385Z,19.30
2019-02-06T08:32:25.690Z,20.55
2019-02-06T08:34:55.778Z,21.70
2019-02-06T08:37:25.482Z,20.57
2019-02-06T08:39:54.798Z,20.20
2019-02-06T08:42:24.723Z,21.90
2019-02-06T08:44:55.378Z,20.30
2019-02-06T08:47:27.711Z,26.10
2019-02-06T08:49:57.114Z,17.40
2019-02-06T08:55:18.870Z,19.15
2019-02-06T09:00:23.691Z,20.20
2019-02-06T09:03:01.893Z,22.50
2019-02-06T09:05:36.420Z,23.95
2019-02-06T09:11:47.379Z,23.70
2019-02-06T09:14:17.939Z,23.50
2019-02-06T09:16:47.028Z,23.03
2019-02-06T09:19:18.750Z,25.15
2019-02-06T09:24:19.795Z,25.57
2019-02-06T09:26:49.774Z,22.90
2019-02-06T09:29:19.856Z,26.10
2019-02-06T09:34:19.447Z,21.60
2019-02-06T09:36:49.147Z,24.67
2019-02-06T09:46:46.680Z,20.90
2019-02-06T09:51:45.781Z,21.80
2019-02-06T09:54:15.821Z,20.80
2019-02-06T09:56:45.641Z,21.60
2019-02-06T09:59:14.400Z,20.05
2019-02-06T10:01:45.365Z,21.60
2019-02-06T10:04:15.409Z,22.90
2019-02-06T10:14:13.750Z,21.60
2019-02-06T10:16:44.894Z,19.50
2019-02-06T10:19:15.935Z,18.05
2019-02-06T10:26:43.043Z,19.30
2019-02-06T10:36:41.427Z,17.80
2019-02-06T10:39:11.604Z,18.03
2019-02-06T10:41:42.984Z,17.60
2019-02-06T10:46:43.765Z,18.60
2019-02-06T10:49:13.784Z,19.60
2019-02-06T10:51:43.362Z,15.00
2019-02-06T10:54:14.714Z,16.60
2019-02-06T10:56:44.740Z,18.70
2019-02-06T11:01:43.815Z,16.00
2019-02-06T11:04:13.819Z,16.93
2019-02-06T11:06:43.435Z,14.90
2019-02-06T11:09:13.818Z,15.05
2019-02-06T11:11:44.798Z,16.80
2019-02-06T11:14:16.893Z,15.30
2019-02-06T11:16:46.739Z,15.80
2019-02-06T11:19:16.842Z,14.80
2019-02-06T11:21:47.393Z,13.70
2019-02-06T11:24:16.691Z,16.30
2019-02-06T11:29:15.763Z,14.27
2019-02-06T11:31:44.979Z,13.95
2019-02-06T11:34:15.919Z,10.80
2019-02-06T11:36:46.403Z,13.10
2019-02-06T11:39:21.794Z,13.20
2019-02-06T11:41:51.022Z,15.10
2019-02-06T11:44:20.032Z,13.00
2019-02-06T11:46:52.669Z,12.20
2019-02-06T11:51:57.056Z,12.20
2019-02-06T11:54:28.019Z,12.00
2019-02-06T11:59:30.707Z,11.67
2019-02-06T12:06:58.862Z,10.90
2019-02-06T12:11:58.793Z,12.00
2019-02-06T12:14:29.848Z,11.80
2019-02-06T12:17:00.714Z,10.70
2019-02-06T12:19:30.721Z,12.60
2019-02-06T12:21:59.794Z,11.80
2019-02-06T12:24:30.353Z,12.00
2019-02-06T12:26:59.743Z,9.90
2019-02-06T12:29:29.809Z,11.20
2019-02-06T12:31:58.639Z,9.70
2019-02-06T12:34:28.399Z,10.55
2019-02-06T12:36:58.646Z,9.07
2019-02-06T12:39:28.581Z,9.45
2019-02-06T12:41:58.868Z,10.50
2019-02-06T12:44:30.411Z,11.60
2019-02-06T12:47:00.706Z,11.40
2019-02-06T12:51:58.791Z,10.30
2019-02-06T12:54:30.566Z,9.40
2019-02-06T12:57:01.037Z,11.50
2019-02-06T13:03:42.785Z,10.70
2019-02-06T13:08:42.780Z,9.23
2019-02-06T13:11:14.691Z,9.80
2019-02-06T13:13:45.316Z,9.55
2019-02-06T13:16:16.496Z,8.85
2019-02-06T13:18:44.993Z,8.65
2019-02-06T13:21:14.849Z,8.60
2019-02-06T13:23:43.704Z,9.15
2019-02-06T13:26:12.769Z,8.70
2019-02-06T13:28:41.832Z,9.13
2019-02-06T13:31:12.793Z,8.40
2019-02-06T13:33:41.769Z,8.30
2019-02-06T13:36:12.720Z,8.87
2019-02-06T13:38:41.041Z,8.10
2019-02-06T13:41:12.588Z,9.30
2019-02-06T13:43:44.352Z,8.90
2019-02-06T13:46:14.807Z,7.70
2019-02-06T13:48:46.113Z,7.50
2019-02-06T13:51:19.626Z,7.60
2019-02-06T13:53:49.922Z,6.50
2019-02-06T13:56:21.129Z,7.30
2019-02-06T13:58:52.921Z,8.90
2019-02-06T14:01:25.865Z,7.50
2019-02-06T14:03:56.640Z,7.10
2019-02-06T14:06:28.618Z,6.90
2019-02-06T14:08:58.605Z,8.40
2019-02-06T14:11:29.131Z,7.15
2019-02-06T14:14:00.001Z,7.65
2019-02-06T14:16:29.812Z,7.80
2019-02-06T14:18:59.763Z,8.75
2019-02-06T14:21:30.469Z,6.30
2019-02-06T14:24:50.682Z,6.80
2019-02-06T14:28:16.485Z,7.70
2019-02-06T14:31:34.742Z,7.40
2019-02-06T14:34:57.828Z,6.50
2019-02-06T14:38:34.912Z,9.00
2019-02-06T14:41:45.837Z,8.27
2019-02-06T14:45:07.896Z,10.00
2019-02-06T14:48:29.800Z,6.90
2019-02-06T14:52:23.359Z,7.90
2019-02-06T14:55:19.777Z,6.20
2019-02-06T14:58:36.878Z,7.40
2019-02-06T15:02:00.974Z,6.65
2019-02-06T15:09:21.954Z,8.20
2019-02-06T15:12:47.797Z,7.10
2019-02-06T15:15:44.880Z,7.97
2019-02-06T15:19:06.882Z,8.95
2019-02-06T15:22:40.700Z,7.25
2019-02-06T15:25:21.970Z,6.50
2019-02-06T15:28:56.940Z,6.80
2019-02-06T15:32:37.346Z,6.50
2019-02-06T15:36:23.798Z,8.30
2019-02-06T15:42:49.844Z,7.25
2019-02-06T15:46:11.946Z,12.50
2019-02-06T15:49:24.675Z,12.25
2019-02-06T15:51:54.042Z,17.15
2019-02-06T15:55:20.606Z,16.35
2019-02-06T15:58:51.818Z,13.20
2019-02-06T16:02:29.352Z,14.85
2019-02-06T16:06:03.928Z,9.90
2019-02-06T16:09:26.912Z,11.30
2019-02-06T16:13:11.057Z,11.90
2019-02-06T16:16:42.859Z,15.20
2019-02-06T16:19:46.039Z,16.25
2019-02-06T16:26:06.182Z,20.20
2019-02-06T16:29:02.974Z,19.40
2019-02-06T16:35:04.776Z,21.25
2019-02-06T16:38:26.377Z,20.50
2019-02-06T16:41:35.824Z,18.80
2019-02-06T16:44:42.174Z,16.60
2019-02-06T16:48:17.967Z,19.50
2019-02-06T16:51:32.032Z,19.80
2019-02-06T16:55:07.780Z,16.90
2019-02-06T17:01:11.720Z,16.50
2019-02-06T17:04:32.867Z,23.20
2019-02-06T17:10:46.780Z,30.60
2019-02-06T17:16:58.779Z,21.30
2019-02-06T17:20:35.504Z,24.75
2019-02-06T17:23:39.365Z,21.95
2019-02-06T17:26:35.136Z,16.15
2019-02-06T17:29:56.763Z,21.05
2019-02-06T17:36:03.787Z,19.83
2019-02-06T17:39:37.738Z,15.98
2019-02-06T17:42:18.744Z,17.90
2019-02-06T17:48:58.812Z,19.07
2019-02-06T17:52:19.786Z,17.35
2019-02-06T17:55:16.363Z,17.70
2019-02-06T17:57:47.947Z,17.00
2019-02-06T18:01:03.821Z,27.10
2019-02-06T18:03:46.703Z,13.20
2019-02-06T18:11:21.410Z,15.80
2019-02-06T18:13:54.652Z,17.50
2019-02-06T18:16:26.689Z,17.40
2019-02-06T18:18:58.348Z,17.00
2019-02-06T18:21:29.673Z,18.70
2019-02-06T18:25:42.792Z,18.45
2019-02-06T18:28:12.960Z,16.75
2019-02-06T18:30:42.368Z,14.30
2019-02-06T18:35:41.312Z,11.30
2019-02-06T18:38:11.761Z,14.55
2019-02-06T18:43:10.593Z,12.00
2019-02-06T18:45:41.036Z,13.80
2019-02-06T18:48:11.737Z,12.75
2019-02-06T18:50:40.997Z,13.10
2019-02-06T18:53:10.004Z,14.45
2019-02-06T18:55:39.124Z,17.90
2019-02-06T18:58:08.863Z,17.80
2019-02-06T19:00:37.997Z,14.00
2019-02-06T19:03:12.706Z,16.45
2019-02-06T19:05:41.665Z,13.60
2019-02-06T19:08:11.721Z,15.40
2019-02-06T19:13:13.044Z,14.10
2019-02-06T19:15:42.899Z,14.10
2019-02-06T19:18:13.350Z,16.00
2019-02-06T19:20:42.638Z,13.75
2019-02-06T19:23:32.625Z,15.60
2019-02-06T19:26:02.650Z,22.00
2019-02-06T19:31:02.964Z,14.20
2019-02-06T19:35:44.180Z,18.30
2019-02-06T19:38:12.753Z,15.90
2019-02-06T19:40:43.317Z,17.80
2019-02-06T19:43:12.059Z,17.30
2019-02-06T19:45:41.999Z,17.15
2019-02-06T19:48:16.291Z,11.60
2019-02-06T19:50:43.021Z,15.30
2019-02-06T19:53:11.738Z,13.45
2019-02-06T19:55:42.753Z,14.20
2019-02-06T19:58:13.792Z,11.90
2019-02-06T20:00:43.717Z,12.45
2019-02-06T20:03:13.658Z,13.10
2019-02-06T20:10:37.056Z,17.10
2019-02-06T20:15:36.875Z,13.90
2019-02-06T20:18:07.387Z,13.30
2019-02-06T20:20:36.393Z,11.10
2019-02-06T20:23:05.994Z,12.50
2019-02-06T20:25:36.038Z,13.15
2019-02-06T20:28:07.761Z,16.10
2019-02-06T20:30:39.048Z,10.95
2019-02-06T20:33:09.876Z,17.40
2019-02-06T20:40:39.446Z,15.10
2019-02-06T20:43:08.847Z,15.90
2019-02-06T20:45:39.718Z,15.45
2019-02-06T20:48:08.830Z,17.20
2019-02-06T20:50:39.810Z,16.70
2019-02-06T20:53:09.733Z,17.10
2019-02-06T20:55:39.364Z,12.40
2019-02-06T20:58:08.723Z,14.60
2019-02-06T21:00:39.394Z,12.28
2019-02-06T21:03:09.660Z,13.10
2019-02-06T21:05:39.655Z,13.10
2019-02-06T21:08:09.699Z,12.90
2019-02-06T21:10:40.471Z,15.30
2019-02-06T21:13:10.792Z,16.05
2019-02-06T21:15:42.083Z,17.40
2019-02-06T21:18:12.369Z,14.40
2019-02-06T21:22:20.806Z,15.30
2019-02-06T21:27:21.714Z,15.40
2019-02-06T21:29:51.748Z,13.40
2019-02-06T21:32:21.763Z,15.65
2019-02-06T21:34:50.815Z,16.70
2019-02-06T21:37:20.728Z,16.60
2019-02-06T21:42:18.408Z,12.20
2019-02-06T21:44:50.829Z,12.90
2019-02-06T21:47:21.804Z,14.10
2019-02-06T21:49:53.898Z,12.30
2019-02-06T21:52:23.682Z,11.85
2019-02-06T21:54:54.788Z,13.20
2019-02-06T22:02:22.819Z,14.07
2019-02-06T22:04:57.032Z,16.65
2019-02-06T22:07:27.505Z,18.50
2019-02-06T22:12:26.842Z,19.90
2019-02-06T22:17:25.412Z,12.40
2019-02-06T22:22:24.698Z,13.45
2019-02-06T22:29:52.832Z,15.95
2019-02-06T22:32:24.727Z,13.80
2019-02-06T22:37:23.790Z,17.10
2019-02-06T22:44:57.143Z,15.10
2019-02-06T22:47:27.786Z,15.35
2019-02-06T22:52:28.381Z,11.85
2019-02-06T22:54:59.801Z,12.50
2019-02-06T22:58:41.516Z,14.10
2019-02-06T23:04:03.437Z,23.50
2019-02-06T23:06:33.207Z,12.10
2019-02-06T23:09:05.169Z,11.30
2019-02-06T23:11:35.040Z,12.00
2019-02-06T23:14:16.908Z,11.90
2019-02-06T23:16:37.440Z,11.70
2019-02-06T23:19:08.637Z,13.67
2019-02-06T23:21:38.802Z,13.80
2019-02-06T23:24:08.707Z,12.50
2019-02-06T23:26:37.403Z,12.90
2019-02-06T23:29:07.803Z,14.55
2019-02-06T23:39:14.854Z,11.10
2019-02-06T23:49:13.832Z,12.10
2019-02-06T23:51:42.834Z,11.95
2019-02-06T23:54:12.353Z,15.60
2019-02-06T23:56:41.820Z,13.60
